sensor_id;sensor_type;location;lat;lon;timestamp;P1;durP1;ratioP1;P2;durP2;ratioP2
22973;SDS011;11653;50.848;4.584;2024-02-14T00:02:20;4.60;;;3.63;;
22973;SDS011;11653;50.848;4.584;2024-02-14T00:04:46;7.07;;;4.13;;
22973;SDS011;11653;50.848;4.584;2024-02-14T00:07:13;4.47;;;3.60;;
22973;SDS011;11653;50.848;4.584;2024-02-14T00:09:39;5.20;;;3.80;;
22973;SDS011;11653;50.848;4.584;2024-02-14T00:12:05;6.33;;;4.13;;
22973;SDS011;11653;50.848;4.584;2024-02-14T00:14:31;5.80;;;4.20;;
22973;SDS011;11653;50.848;4.584;2024-02-14T00:16:57;7.50;;;4.30;;
22973;SDS011;11653;50.848;4.584;2024-02-14T00:19:24;7.13;;;3.70;;
22973;SDS011;11653;50.848;4.584;2024-02-14T00:21:50;6.27;;;3.43;;
22973;SDS011;11653;50.848;4.584;2024-02-14T00:24:15;6.63;;;4.10;;
22973;SDS011;11653;50.848;4.584;2024-02-14T00:26:43;8.87;;;5.20;;
22973;SDS011;11653;50.848;4.584;2024-02-14T00:29:11;6.13;;;4.57;;
22973;SDS011;11653;50.848;4.584;2024-02-14T00:31:37;8.50;;;4.07;;
22973;SDS011;11653;50.848;4.584;2024-02-14T00:34:02;7.27;;;4.47;;
22973;SDS011;11653;50.848;4.584;2024-02-14T00:36:28;5.03;;;3.80;;
22973;SDS011;11653;50.848;4.584;2024-02-14T00:38:53;9.17;;;5.90;;
22973;SDS011;11653;50.848;4.584;2024-02-14T00:41:20;6.43;;;4.77;;
22973;SDS011;11653;50.848;4.584;2024-02-14T00:43:46;7.17;;;4.07;;
22973;SDS011;11653;50.848;4.584;2024-02-14T00:46:15;5.33;;;4.43;;
22973;SDS011;11653;50.848;4.584;2024-02-14T00:48:42;6.23;;;3.70;;
22973;SDS011;11653;50.848;4.584;2024-02-14T00:51:09;5.77;;;4.13;;
22973;SDS011;11653;50.848;4.584;2024-02-14T00:53:35;5.87;;;4.20;;
22973;SDS011;11653;50.848;4.584;2024-02-14T00:56:00;5.50;;;4.37;;
22973;SDS011;11653;50.848;4.584;2024-02-14T00:58:26;5.00;;;3.80;;
22973;SDS011;11653;50.848;4.584;2024-02-14T01:00:52;5.00;;;3.60;;
22973;SDS011;11653;50.848;4.584;2024-02-14T01:03:17;8.33;;;3.53;;
22973;SDS011;11653;50.848;4.584;2024-02-14T01:05:43;6.33;;;3.83;;
22973;SDS011;11653;50.848;4.584;2024-02-14T01:08:09;9.33;;;3.67;;
22973;SDS011;11653;50.848;4.584;2024-02-14T01:10:34;5.53;;;3.63;;
22973;SDS011;11653;50.848;4.584;2024-02-14T01:13:00;5.80;;;3.63;;
22973;SDS011;11653;50.848;4.584;2024-02-14T01:15:26;5.43;;;4.00;;
22973;SDS011;11653;50.848;4.584;2024-02-14T01:17:52;8.97;;;4.03;;
22973;SDS011;11653;50.848;4.584;2024-02-14T01:20:18;5.07;;;3.93;;
22973;SDS011;11653;50.848;4.584;2024-02-14T01:22:45;8.27;;;3.87;;
22973;SDS011;11653;50.848;4.584;2024-02-14T01:25:11;5.80;;;3.90;;
22973;SDS011;11653;50.848;4.584;2024-02-14T01:27:37;5.77;;;3.90;;
22973;SDS011;11653;50.848;4.584;2024-02-14T01:30:03;4.97;;;3.83;;
22973;SDS011;11653;50.848;4.584;2024-02-14T01:32:30;5.73;;;3.93;;
22973;SDS011;11653;50.848;4.584;2024-02-14T01:34:56;6.47;;;3.57;;
22973;SDS011;11653;50.848;4.584;2024-02-14T01:37:22;7.97;;;4.43;;
22973;SDS011;11653;50.848;4.584;2024-02-14T01:39:48;6.83;;;4.20;;
22973;SDS011;11653;50.848;4.584;2024-02-14T01:42:13;7.23;;;4.70;;
22973;SDS011;11653;50.848;4.584;2024-02-14T01:44:39;6.97;;;4.17;;
22973;SDS011;11653;50.848;4.584;2024-02-14T01:47:05;6.27;;;4.20;;
22973;SDS011;11653;50.848;4.584;2024-02-14T01:49:32;5.93;;;4.63;;
22973;SDS011;11653;50.848;4.584;2024-02-14T01:51:59;6.27;;;4.03;;
22973;SDS011;11653;50.848;4.584;2024-02-14T01:54:29;4.77;;;4.30;;
22973;SDS011;11653;50.848;4.584;2024-02-14T01:56:56;7.33;;;5.00;;
22973;SDS011;11653;50.848;4.584;2024-02-14T01:59:23;5.73;;;4.77;;
22973;SDS011;11653;50.848;4.584;2024-02-14T02:01:49;7.83;;;4.83;;
22973;SDS011;11653;50.848;4.584;2024-02-14T02:04:17;9.33;;;4.73;;
22973;SDS011;11653;50.848;4.584;2024-02-14T02:06:43;5.10;;;4.40;;
22973;SDS011;11653;50.848;4.584;2024-02-14T02:09:09;7.10;;;4.50;;
22973;SDS011;11653;50.848;4.584;2024-02-14T02:11:51;6.33;;;4.97;;
22973;SDS011;11653;50.848;4.584;2024-02-14T02:14:21;7.20;;;4.87;;
22973;SDS011;11653;50.848;4.584;2024-02-14T02:16:47;9.53;;;4.77;;
22973;SDS011;11653;50.848;4.584;2024-02-14T02:19:13;7.33;;;4.97;;
22973;SDS011;11653;50.848;4.584;2024-02-14T02:21:41;8.77;;;5.03;;
22973;SDS011;11653;50.848;4.584;2024-02-14T02:24:08;5.83;;;4.70;;
22973;SDS011;11653;50.848;4.584;2024-02-14T02:26:33;8.60;;;4.97;;
22973;SDS011;11653;50.848;4.584;2024-02-14T02:28:59;8.67;;;5.13;;
22973;SDS011;11653;50.848;4.584;2024-02-14T02:31:24;9.60;;;4.87;;
22973;SDS011;11653;50.848;4.584;2024-02-14T02:33:51;7.10;;;4.90;;
22973;SDS011;11653;50.848;4.584;2024-02-14T02:36:17;7.00;;;4.77;;
22973;SDS011;11653;50.848;4.584;2024-02-14T02:38:43;7.93;;;5.27;;
22973;SDS011;11653;50.848;4.584;2024-02-14T02:41:09;9.80;;;5.40;;
22973;SDS011;11653;50.848;4.584;2024-02-14T02:43:34;7.73;;;5.23;;
22973;SDS011;11653;50.848;4.584;2024-02-14T02:46:01;8.00;;;5.17;;
22973;SDS011;11653;50.848;4.584;2024-02-14T02:48:27;8.07;;;5.73;;
22973;SDS011;11653;50.848;4.584;2024-02-14T02:50:53;6.73;;;5.10;;
22973;SDS011;11653;50.848;4.584;2024-02-14T02:53:19;8.97;;;5.80;;
22973;SDS011;11653;50.848;4.584;2024-02-14T02:55:45;9.50;;;5.70;;
22973;SDS011;11653;50.848;4.584;2024-02-14T02:58:11;8.73;;;5.40;;
22973;SDS011;11653;50.848;4.584;2024-02-14T03:00:37;9.03;;;5.67;;
22973;SDS011;11653;50.848;4.584;2024-02-14T03:03:02;8.07;;;6.57;;
22973;SDS011;11653;50.848;4.584;2024-02-14T03:05:30;7.13;;;6.00;;
22973;SDS011;11653;50.848;4.584;2024-02-14T03:07:57;10.33;;;6.23;;
22973;SDS011;11653;50.848;4.584;2024-02-14T03:10:23;9.87;;;6.53;;
22973;SDS011;11653;50.848;4.584;2024-02-14T03:12:50;9.00;;;6.50;;
22973;SDS011;11653;50.848;4.584;2024-02-14T03:15:16;10.47;;;6.47;;
22973;SDS011;11653;50.848;4.584;2024-02-14T03:17:42;9.90;;;6.33;;
22973;SDS011;11653;50.848;4.584;2024-02-14T03:20:08;10.60;;;6.50;;
22973;SDS011;11653;50.848;4.584;2024-02-14T03:22:43;8.33;;;5.80;;
22973;SDS011;11653;50.848;4.584;2024-02-14T03:25:16;9.63;;;6.20;;
22973;SDS011;11653;50.848;4.584;2024-02-14T03:27:43;9.03;;;6.47;;
22973;SDS011;11653;50.848;4.584;2024-02-14T03:30:14;13.13;;;6.53;;
22973;SDS011;11653;50.848;4.584;2024-02-14T03:32:41;9.90;;;6.43;;
22973;SDS011;11653;50.848;4.584;2024-02-14T03:35:07;11.87;;;6.43;;
22973;SDS011;11653;50.848;4.584;2024-02-14T03:37:35;11.67;;;7.07;;
22973;SDS011;11653;50.848;4.584;2024-02-14T03:40:02;12.33;;;7.23;;
22973;SDS011;11653;50.848;4.584;2024-02-14T03:42:30;11.07;;;6.50;;
22973;SDS011;11653;50.848;4.584;2024-02-14T03:44:55;11.60;;;6.90;;
22973;SDS011;11653;50.848;4.584;2024-02-14T03:47:27;10.90;;;7.20;;
22973;SDS011;11653;50.848;4.584;2024-02-14T03:49:57;9.43;;;6.80;;
22973;SDS011;11653;50.848;4.584;2024-02-14T03:52:23;11.40;;;6.87;;
22973;SDS011;11653;50.848;4.584;2024-02-14T03:54:49;11.67;;;7.40;;
22973;SDS011;11653;50.848;4.584;2024-02-14T03:57:16;12.93;;;7.93;;
22973;SDS011;11653;50.848;4.584;2024-02-14T03:59:44;15.80;;;7.20;;
22973;SDS011;11653;50.848;4.584;2024-02-14T04:02:11;10.60;;;7.03;;
22973;SDS011;11653;50.848;4.584;2024-02-14T04:04:40;14.37;;;7.80;;
22973;SDS011;11653;50.848;4.584;2024-02-14T04:07:07;10.17;;;7.67;;
22973;SDS011;11653;50.848;4.584;2024-02-14T04:09:36;14.37;;;7.90;;
22973;SDS011;11653;50.848;4.584;2024-02-14T04:12:01;13.70;;;8.03;;
22973;SDS011;11653;50.848;4.584;2024-02-14T04:14:27;12.37;;;8.27;;
22973;SDS011;11653;50.848;4.584;2024-02-14T04:16:53;11.57;;;7.67;;
22973;SDS011;11653;50.848;4.584;2024-02-14T04:19:19;14.53;;;8.00;;
22973;SDS011;11653;50.848;4.584;2024-02-14T04:21:45;11.83;;;8.37;;
22973;SDS011;11653;50.848;4.584;2024-02-14T04:24:11;10.73;;;7.53;;
22973;SDS011;11653;50.848;4.584;2024-02-14T04:26:37;11.27;;;8.50;;
22973;SDS011;11653;50.848;4.584;2024-02-14T04:29:03;13.90;;;8.33;;
22973;SDS011;11653;50.848;4.584;2024-02-14T04:31:29;13.43;;;8.73;;
22973;SDS011;11653;50.848;4.584;2024-02-14T04:33:56;12.43;;;8.50;;
22973;SDS011;11653;50.848;4.584;2024-02-14T04:36:22;14.00;;;9.27;;
22973;SDS011;11653;50.848;4.584;2024-02-14T04:38:50;13.13;;;8.77;;
22973;SDS011;11653;50.848;4.584;2024-02-14T04:41:20;14.47;;;8.70;;
22973;SDS011;11653;50.848;4.584;2024-02-14T04:43:46;14.57;;;8.70;;
22973;SDS011;11653;50.848;4.584;2024-02-14T04:46:12;13.20;;;8.33;;
22973;SDS011;11653;50.848;4.584;2024-02-14T04:48:38;15.10;;;8.90;;
22973;SDS011;11653;50.848;4.584;2024-02-14T04:51:04;13.77;;;8.17;;
22973;SDS011;11653;50.848;4.584;2024-02-14T04:53:30;10.50;;;7.87;;
22973;SDS011;11653;50.848;4.584;2024-02-14T04:55:56;13.23;;;8.53;;
22973;SDS011;11653;50.848;4.584;2024-02-14T04:58:22;12.87;;;8.70;;
22973;SDS011;11653;50.848;4.584;2024-02-14T05:00:48;11.20;;;8.67;;
22973;SDS011;11653;50.848;4.584;2024-02-14T05:03:14;15.17;;;8.87;;
22973;SDS011;11653;50.848;4.584;2024-02-14T05:05:40;11.67;;;8.70;;
22973;SDS011;11653;50.848;4.584;2024-02-14T05:08:06;13.33;;;9.00;;
22973;SDS011;11653;50.848;4.584;2024-02-14T05:10:32;13.37;;;9.37;;
22973;SDS011;11653;50.848;4.584;2024-02-14T05:12:58;17.20;;;9.77;;
22973;SDS011;11653;50.848;4.584;2024-02-14T05:15:24;14.43;;;9.57;;
22973;SDS011;11653;50.848;4.584;2024-02-14T05:17:50;18.10;;;9.67;;
22973;SDS011;11653;50.848;4.584;2024-02-14T05:20:16;17.47;;;10.77;;
22973;SDS011;11653;50.848;4.584;2024-02-14T05:22:42;15.43;;;10.33;;
22973;SDS011;11653;50.848;4.584;2024-02-14T05:25:08;13.57;;;10.00;;
22973;SDS011;11653;50.848;4.584;2024-02-14T05:27:34;17.90;;;10.30;;
22973;SDS011;11653;50.848;4.584;2024-02-14T05:30:00;14.43;;;9.93;;
22973;SDS011;11653;50.848;4.584;2024-02-14T05:32:30;20.07;;;10.37;;
22973;SDS011;11653;50.848;4.584;2024-02-14T05:34:59;16.27;;;10.33;;
22973;SDS011;11653;50.848;4.584;2024-02-14T05:37:25;14.70;;;9.73;;
22973;SDS011;11653;50.848;4.584;2024-02-14T05:39:54;14.47;;;10.03;;
22973;SDS011;11653;50.848;4.584;2024-02-14T05:42:20;14.73;;;10.40;;
22973;SDS011;11653;50.848;4.584;2024-02-14T05:44:46;19.13;;;10.57;;
22973;SDS011;11653;50.848;4.584;2024-02-14T05:47:12;17.30;;;10.13;;
22973;SDS011;11653;50.848;4.584;2024-02-14T05:49:39;15.83;;;10.23;;
22973;SDS011;11653;50.848;4.584;2024-02-14T05:52:06;14.30;;;9.97;;
22973;SDS011;11653;50.848;4.584;2024-02-14T05:54:32;17.23;;;10.07;;
22973;SDS011;11653;50.848;4.584;2024-02-14T05:56:58;18.40;;;10.47;;
22973;SDS011;11653;50.848;4.584;2024-02-14T05:59:24;15.50;;;10.50;;
22973;SDS011;11653;50.848;4.584;2024-02-14T06:01:49;13.63;;;10.10;;
22973;SDS011;11653;50.848;4.584;2024-02-14T06:04:15;12.97;;;10.00;;
22973;SDS011;11653;50.848;4.584;2024-02-14T06:06:41;16.00;;;9.93;;
22973;SDS011;11653;50.848;4.584;2024-02-14T06:09:06;15.47;;;10.47;;
22973;SDS011;11653;50.848;4.584;2024-02-14T06:11:36;15.87;;;10.60;;
22973;SDS011;11653;50.848;4.584;2024-02-14T06:14:04;16.07;;;11.13;;
22973;SDS011;11653;50.848;4.584;2024-02-14T06:16:30;15.73;;;10.57;;
22973;SDS011;11653;50.848;4.584;2024-02-14T06:18:57;13.87;;;9.67;;
22973;SDS011;11653;50.848;4.584;2024-02-14T06:21:22;15.50;;;9.73;;
22973;SDS011;11653;50.848;4.584;2024-02-14T06:23:48;13.53;;;8.97;;
22973;SDS011;11653;50.848;4.584;2024-02-14T06:26:14;14.53;;;9.63;;
22973;SDS011;11653;50.848;4.584;2024-02-14T06:28:39;18.53;;;10.00;;
22973;SDS011;11653;50.848;4.584;2024-02-14T06:31:05;16.70;;;10.53;;
22973;SDS011;11653;50.848;4.584;2024-02-14T06:33:31;16.00;;;8.80;;
22973;SDS011;11653;50.848;4.584;2024-02-14T06:35:56;15.60;;;9.77;;
22973;SDS011;11653;50.848;4.584;2024-02-14T06:38:22;14.70;;;9.07;;
22973;SDS011;11653;50.848;4.584;2024-02-14T06:40:48;15.67;;;9.93;;
22973;SDS011;11653;50.848;4.584;2024-02-14T06:43:14;15.17;;;9.13;;
22973;SDS011;11653;50.848;4.584;2024-02-14T06:45:40;13.53;;;8.50;;
22973;SDS011;11653;50.848;4.584;2024-02-14T06:48:07;17.80;;;9.30;;
22973;SDS011;11653;50.848;4.584;2024-02-14T06:50:33;16.90;;;9.00;;
22973;SDS011;11653;50.848;4.584;2024-02-14T06:52:59;14.57;;;8.83;;
22973;SDS011;11653;50.848;4.584;2024-02-14T06:55:26;15.33;;;8.87;;
22973;SDS011;11653;50.848;4.584;2024-02-14T06:57:52;18.00;;;9.40;;
22973;SDS011;11653;50.848;4.584;2024-02-14T07:00:19;15.87;;;9.47;;
22973;SDS011;11653;50.848;4.584;2024-02-14T07:02:45;17.60;;;9.50;;
22973;SDS011;11653;50.848;4.584;2024-02-14T07:05:13;17.33;;;9.67;;
22973;SDS011;11653;50.848;4.584;2024-02-14T07:07:39;15.67;;;9.57;;
22973;SDS011;11653;50.848;4.584;2024-02-14T07:10:06;13.97;;;9.70;;
22973;SDS011;11653;50.848;4.584;2024-02-14T07:12:32;18.00;;;9.43;;
22973;SDS011;11653;50.848;4.584;2024-02-14T07:14:58;16.70;;;9.30;;
22973;SDS011;11653;50.848;4.584;2024-02-14T07:17:24;17.07;;;9.73;;
22973;SDS011;11653;50.848;4.584;2024-02-14T07:19:49;18.57;;;9.87;;
22973;SDS011;11653;50.848;4.584;2024-02-14T07:22:15;14.37;;;10.03;;
22973;SDS011;11653;50.848;4.584;2024-02-14T07:24:44;18.73;;;8.57;;
22973;SDS011;11653;50.848;4.584;2024-02-14T07:27:11;15.17;;;9.40;;
22973;SDS011;11653;50.848;4.584;2024-02-14T07:29:39;17.73;;;9.13;;
22973;SDS011;11653;50.848;4.584;2024-02-14T07:32:05;17.17;;;8.93;;
22973;SDS011;11653;50.848;4.584;2024-02-14T07:34:33;15.23;;;8.40;;
22973;SDS011;11653;50.848;4.584;2024-02-14T07:36:59;16.00;;;8.90;;
22973;SDS011;11653;50.848;4.584;2024-02-14T07:39:25;12.13;;;8.50;;
22973;SDS011;11653;50.848;4.584;2024-02-14T07:41:51;16.87;;;9.00;;
22973;SDS011;11653;50.848;4.584;2024-02-14T07:44:17;15.40;;;8.97;;
22973;SDS011;11653;50.848;4.584;2024-02-14T07:46:43;13.47;;;8.33;;
22973;SDS011;11653;50.848;4.584;2024-02-14T07:49:08;16.93;;;8.77;;
22973;SDS011;11653;50.848;4.584;2024-02-14T07:51:35;18.83;;;8.40;;
22973;SDS011;11653;50.848;4.584;2024-02-14T07:54:02;16.43;;;8.97;;
22973;SDS011;11653;50.848;4.584;2024-02-14T07:56:29;21.10;;;9.20;;
22973;SDS011;11653;50.848;4.584;2024-02-14T07:58:55;15.43;;;8.73;;
22973;SDS011;11653;50.848;4.584;2024-02-14T08:01:20;13.20;;;8.80;;
22973;SDS011;11653;50.848;4.584;2024-02-14T08:03:46;14.73;;;8.33;;
22973;SDS011;11653;50.848;4.584;2024-02-14T08:06:12;15.50;;;9.20;;
22973;SDS011;11653;50.848;4.584;2024-02-14T08:08:38;16.37;;;8.87;;
22973;SDS011;11653;50.848;4.584;2024-02-14T08:11:04;16.80;;;8.97;;
22973;SDS011;11653;50.848;4.584;2024-02-14T08:13:30;16.57;;;8.17;;
22973;SDS011;11653;50.848;4.584;2024-02-14T08:15:57;13.67;;;8.27;;
22973;SDS011;11653;50.848;4.584;2024-02-14T08:18:23;14.90;;;8.50;;
22973;SDS011;11653;50.848;4.584;2024-02-14T08:20:49;15.03;;;8.57;;
22973;SDS011;11653;50.848;4.584;2024-02-14T08:23:15;14.43;;;8.30;;
22973;SDS011;11653;50.848;4.584;2024-02-14T08:25:42;14.10;;;8.60;;
22973;SDS011;11653;50.848;4.584;2024-02-14T08:28:07;15.07;;;8.87;;
22973;SDS011;11653;50.848;4.584;2024-02-14T08:30:34;14.77;;;9.63;;
22973;SDS011;11653;50.848;4.584;2024-02-14T08:33:00;14.33;;;9.40;;
22973;SDS011;11653;50.848;4.584;2024-02-14T08:35:25;10.63;;;8.53;;
22973;SDS011;11653;50.848;4.584;2024-02-14T08:37:51;15.10;;;9.50;;
22973;SDS011;11653;50.848;4.584;2024-02-14T08:40:17;14.57;;;9.60;;
22973;SDS011;11653;50.848;4.584;2024-02-14T08:42:43;18.83;;;10.07;;
22973;SDS011;11653;50.848;4.584;2024-02-14T08:45:09;17.23;;;10.07;;
22973;SDS011;11653;50.848;4.584;2024-02-14T08:47:35;18.43;;;9.70;;
22973;SDS011;11653;50.848;4.584;2024-02-14T08:50:01;23.73;;;15.90;;
22973;SDS011;11653;50.848;4.584;2024-02-14T08:52:29;16.13;;;10.13;;
22973;SDS011;11653;50.848;4.584;2024-02-14T08:54:57;21.27;;;10.53;;
22973;SDS011;11653;50.848;4.584;2024-02-14T08:57:23;16.13;;;10.33;;
22973;SDS011;11653;50.848;4.584;2024-02-14T08:59:49;14.27;;;10.03;;
22973;SDS011;11653;50.848;4.584;2024-02-14T09:02:15;17.67;;;9.63;;
22973;SDS011;11653;50.848;4.584;2024-02-14T09:04:41;16.57;;;10.50;;
22973;SDS011;11653;50.848;4.584;2024-02-14T09:07:07;17.40;;;10.47;;
22973;SDS011;11653;50.848;4.584;2024-02-14T09:09:33;13.57;;;10.37;;
22973;SDS011;11653;50.848;4.584;2024-02-14T09:11:59;13.83;;;9.77;;
22973;SDS011;11653;50.848;4.584;2024-02-14T09:14:31;17.50;;;10.60;;
22973;SDS011;11653;50.848;4.584;2024-02-14T09:16:57;17.83;;;10.20;;
22973;SDS011;11653;50.848;4.584;2024-02-14T09:19:23;13.47;;;10.43;;
22973;SDS011;11653;50.848;4.584;2024-02-14T09:21:50;16.77;;;10.37;;
22973;SDS011;11653;50.848;4.584;2024-02-14T09:24:16;21.20;;;10.63;;
22973;SDS011;11653;50.848;4.584;2024-02-14T09:26:41;18.33;;;10.57;;
22973;SDS011;11653;50.848;4.584;2024-02-14T09:29:08;21.57;;;11.80;;
22973;SDS011;11653;50.848;4.584;2024-02-14T09:31:36;21.87;;;11.20;;
22973;SDS011;11653;50.848;4.584;2024-02-14T09:34:01;19.13;;;11.03;;
22973;SDS011;11653;50.848;4.584;2024-02-14T09:36:27;19.10;;;11.30;;
22973;SDS011;11653;50.848;4.584;2024-02-14T09:38:54;16.80;;;11.17;;
22973;SDS011;11653;50.848;4.584;2024-02-14T09:41:31;15.10;;;9.63;;
22973;SDS011;11653;50.848;4.584;2024-02-14T09:44:01;18.33;;;10.20;;
22973;SDS011;11653;50.848;4.584;2024-02-14T09:46:28;16.93;;;9.60;;
22973;SDS011;11653;50.848;4.584;2024-02-14T09:48:55;19.23;;;9.73;;
22973;SDS011;11653;50.848;4.584;2024-02-14T09:51:24;15.73;;;8.87;;
22973;SDS011;11653;50.848;4.584;2024-02-14T09:53:50;13.67;;;8.97;;
22973;SDS011;11653;50.848;4.584;2024-02-14T09:56:19;13.00;;;9.23;;
22973;SDS011;11653;50.848;4.584;2024-02-14T09:58:47;13.93;;;8.73;;
22973;SDS011;11653;50.848;4.584;2024-02-14T10:01:32;14.90;;;8.37;;
22973;SDS011;11653;50.848;4.584;2024-02-14T10:03:58;11.60;;;7.53;;
22973;SDS011;11653;50.848;4.584;2024-02-14T10:06:23;10.10;;;7.33;;
22973;SDS011;11653;50.848;4.584;2024-02-14T10:08:50;9.17;;;6.27;;
22973;SDS011;11653;50.848;4.584;2024-02-14T10:11:19;9.27;;;6.97;;
22973;SDS011;11653;50.848;4.584;2024-02-14T10:13:49;8.60;;;5.87;;
22973;SDS011;11653;50.848;4.584;2024-02-14T10:16:16;6.67;;;5.97;;
22973;SDS011;11653;50.848;4.584;2024-02-14T10:18:44;7.77;;;6.13;;
22973;SDS011;11653;50.848;4.584;2024-02-14T10:21:14;9.40;;;6.13;;
22973;SDS011;11653;50.848;4.584;2024-02-14T10:23:42;9.47;;;6.40;;
22973;SDS011;11653;50.848;4.584;2024-02-14T10:26:08;8.53;;;6.03;;
22973;SDS011;11653;50.848;4.584;2024-02-14T10:28:35;6.03;;;5.27;;
22973;SDS011;11653;50.848;4.584;2024-02-14T10:31:00;6.13;;;5.37;;
22973;SDS011;11653;50.848;4.584;2024-02-14T10:33:29;10.97;;;6.40;;
22973;SDS011;11653;50.848;4.584;2024-02-14T10:35:55;7.50;;;5.50;;
22973;SDS011;11653;50.848;4.584;2024-02-14T10:38:22;6.53;;;5.13;;
22973;SDS011;11653;50.848;4.584;2024-02-14T10:40:49;6.30;;;4.73;;
22973;SDS011;11653;50.848;4.584;2024-02-14T10:43:16;5.53;;;4.60;;
22973;SDS011;11653;50.848;4.584;2024-02-14T10:45:42;6.53;;;4.80;;
22973;SDS011;11653;50.848;4.584;2024-02-14T10:48:11;8.00;;;5.20;;
22973;SDS011;11653;50.848;4.584;2024-02-14T10:50:43;7.77;;;5.27;;
22973;SDS011;11653;50.848;4.584;2024-02-14T10:56:30;5.40;;;4.07;;
22973;SDS011;11653;50.848;4.584;2024-02-14T10:58:57;6.40;;;4.40;;
22973;SDS011;11653;50.848;4.584;2024-02-14T11:01:24;7.03;;;4.50;;
22973;SDS011;11653;50.848;4.584;2024-02-14T11:03:52;6.37;;;4.23;;
22973;SDS011;11653;50.848;4.584;2024-02-14T11:06:25;5.00;;;3.93;;
22973;SDS011;11653;50.848;4.584;2024-02-14T11:11:27;5.33;;;3.97;;
22973;SDS011;11653;50.848;4.584;2024-02-14T11:13:54;5.53;;;3.33;;
22973;SDS011;11653;50.848;4.584;2024-02-14T11:16:27;4.23;;;3.27;;
22973;SDS011;11653;50.848;4.584;2024-02-14T11:19:09;3.73;;;3.40;;
22973;SDS011;11653;50.848;4.584;2024-02-14T11:21:40;4.40;;;3.17;;
22973;SDS011;11653;50.848;4.584;2024-02-14T11:24:10;4.33;;;3.77;;
22973;SDS011;11653;50.848;4.584;2024-02-14T11:26:55;4.37;;;2.93;;
22973;SDS011;11653;50.848;4.584;2024-02-14T11:29:21;3.40;;;2.77;;
22973;SDS011;11653;50.848;4.584;2024-02-14T11:31:59;5.17;;;2.87;;
22973;SDS011;11653;50.848;4.584;2024-02-14T11:34:27;4.87;;;2.80;;
22973;SDS011;11653;50.848;4.584;2024-02-14T11:36:53;3.50;;;2.80;;
22973;SDS011;11653;50.848;4.584;2024-02-14T11:39:20;4.23;;;2.77;;
22973;SDS011;11653;50.848;4.584;2024-02-14T11:41:56;2.97;;;2.53;;
22973;SDS011;11653;50.848;4.584;2024-02-14T11:58:28;5.93;;;2.80;;
22973;SDS011;11653;50.848;4.584;2024-02-14T12:00:54;4.57;;;2.80;;
22973;SDS011;11653;50.848;4.584;2024-02-14T12:03:23;4.30;;;2.90;;
22973;SDS011;11653;50.848;4.584;2024-02-14T12:05:51;4.87;;;2.90;;
22973;SDS011;11653;50.848;4.584;2024-02-14T12:08:17;4.43;;;2.87;;
22973;SDS011;11653;50.848;4.584;2024-02-14T12:10:43;4.93;;;3.37;;
22973;SDS011;11653;50.848;4.584;2024-02-14T12:13:14;7.50;;;5.83;;
22973;SDS011;11653;50.848;4.584;2024-02-14T12:15:44;5.20;;;3.37;;
22973;SDS011;11653;50.848;4.584;2024-02-14T12:18:10;5.57;;;3.73;;
22973;SDS011;11653;50.848;4.584;2024-02-14T12:20:37;6.80;;;3.70;;
22973;SDS011;11653;50.848;4.584;2024-02-14T12:23:03;6.33;;;3.80;;
22973;SDS011;11653;50.848;4.584;2024-02-14T12:25:30;6.50;;;3.90;;
22973;SDS011;11653;50.848;4.584;2024-02-14T12:27:56;4.50;;;3.70;;
22973;SDS011;11653;50.848;4.584;2024-02-14T12:30:41;6.10;;;3.90;;
22973;SDS011;11653;50.848;4.584;2024-02-14T12:33:10;7.43;;;3.97;;
22973;SDS011;11653;50.848;4.584;2024-02-14T12:35:36;6.77;;;4.20;;
22973;SDS011;11653;50.848;4.584;2024-02-14T12:38:07;5.90;;;4.13;;
22973;SDS011;11653;50.848;4.584;2024-02-14T12:40:36;5.63;;;4.23;;
22973;SDS011;11653;50.848;4.584;2024-02-14T12:43:02;7.33;;;4.73;;
22973;SDS011;11653;50.848;4.584;2024-02-14T12:45:28;11.03;;;5.00;;
22973;SDS011;11653;50.848;4.584;2024-02-14T12:47:54;10.77;;;5.77;;
22973;SDS011;11653;50.848;4.584;2024-02-14T12:50:19;8.63;;;5.23;;
22973;SDS011;11653;50.848;4.584;2024-02-14T12:52:45;13.63;;;6.33;;
22973;SDS011;11653;50.848;4.584;2024-02-14T12:55:11;9.30;;;6.03;;
22973;SDS011;11653;50.848;4.584;2024-02-14T12:57:37;9.70;;;6.00;;
22973;SDS011;11653;50.848;4.584;2024-02-14T13:00:05;11.57;;;6.30;;
22973;SDS011;11653;50.848;4.584;2024-02-14T13:02:33;9.27;;;5.83;;
22973;SDS011;11653;50.848;4.584;2024-02-14T13:04:59;6.87;;;5.57;;
22973;SDS011;11653;50.848;4.584;2024-02-14T13:07:26;9.33;;;5.90;;
22973;SDS011;11653;50.848;4.584;2024-02-14T13:09:53;12.77;;;6.53;;
22973;SDS011;11653;50.848;4.584;2024-02-14T13:12:20;13.73;;;7.13;;
22973;SDS011;11653;50.848;4.584;2024-02-14T13:14:46;10.40;;;6.40;;
22973;SDS011;11653;50.848;4.584;2024-02-14T13:17:12;9.50;;;6.80;;
22973;SDS011;11653;50.848;4.584;2024-02-14T13:19:37;10.70;;;5.93;;
22973;SDS011;11653;50.848;4.584;2024-02-14T13:22:04;10.70;;;5.97;;
22973;SDS011;11653;50.848;4.584;2024-02-14T13:24:30;9.10;;;6.07;;
22973;SDS011;11653;50.848;4.584;2024-02-14T13:26:56;10.30;;;5.67;;
22973;SDS011;11653;50.848;4.584;2024-02-14T13:29:25;8.80;;;5.40;;
22973;SDS011;11653;50.848;4.584;2024-02-14T13:31:50;9.80;;;5.13;;
22973;SDS011;11653;50.848;4.584;2024-02-14T13:34:16;8.43;;;4.60;;
22973;SDS011;11653;50.848;4.584;2024-02-14T13:36:45;11.67;;;5.63;;
22973;SDS011;11653;50.848;4.584;2024-02-14T13:39:14;11.43;;;5.07;;
22973;SDS011;11653;50.848;4.584;2024-02-14T13:41:40;8.83;;;5.20;;
22973;SDS011;11653;50.848;4.584;2024-02-14T13:44:09;7.47;;;4.53;;
22973;SDS011;11653;50.848;4.584;2024-02-14T13:46:34;11.17;;;4.53;;
22973;SDS011;11653;50.848;4.584;2024-02-14T13:49:01;12.37;;;5.30;;
22973;SDS011;11653;50.848;4.584;2024-02-14T13:51:26;8.53;;;4.80;;
22973;SDS011;11653;50.848;4.584;2024-02-14T13:53:52;10.20;;;4.50;;
22973;SDS011;11653;50.848;4.584;2024-02-14T13:56:19;8.17;;;4.20;;
22973;SDS011;11653;50.848;4.584;2024-02-14T13:58:47;8.43;;;4.47;;
22973;SDS011;11653;50.848;4.584;2024-02-14T14:01:15;9.87;;;4.90;;
22973;SDS011;11653;50.848;4.584;2024-02-14T14:03:42;7.83;;;4.37;;
22973;SDS011;11653;50.848;4.584;2024-02-14T14:06:08;8.03;;;4.73;;
22973;SDS011;11653;50.848;4.584;2024-02-14T14:08:34;10.03;;;4.80;;
22973;SDS011;11653;50.848;4.584;2024-02-14T14:11:02;7.80;;;4.87;;
22973;SDS011;11653;50.848;4.584;2024-02-14T14:13:28;7.30;;;4.60;;
22973;SDS011;11653;50.848;4.584;2024-02-14T14:15:56;6.23;;;4.20;;
22973;SDS011;11653;50.848;4.584;2024-02-14T14:18:22;6.40;;;4.37;;
22973;SDS011;11653;50.848;4.584;2024-02-14T14:20:48;6.93;;;4.30;;
22973;SDS011;11653;50.848;4.584;2024-02-14T14:23:14;10.60;;;5.13;;
22973;SDS011;11653;50.848;4.584;2024-02-14T14:25:41;7.60;;;4.13;;
22973;SDS011;11653;50.848;4.584;2024-02-14T14:28:06;10.20;;;4.77;;
22973;SDS011;11653;50.848;4.584;2024-02-14T14:30:34;7.70;;;4.30;;
22973;SDS011;11653;50.848;4.584;2024-02-14T14:33:00;12.27;;;4.13;;
22973;SDS011;11653;50.848;4.584;2024-02-14T14:35:27;5.53;;;3.93;;
22973;SDS011;11653;50.848;4.584;2024-02-14T14:37:53;8.43;;;3.93;;
22973;SDS011;11653;50.848;4.584;2024-02-14T14:40:19;7.10;;;4.13;;
22973;SDS011;11653;50.848;4.584;2024-02-14T14:42:57;7.57;;;3.90;;
22973;SDS011;11653;50.848;4.584;2024-02-14T14:45:22;9.47;;;4.07;;
22973;SDS011;11653;50.848;4.584;2024-02-14T14:47:48;6.77;;;3.80;;
22973;SDS011;11653;50.848;4.584;2024-02-14T14:50:14;8.30;;;4.07;;
22973;SDS011;11653;50.848;4.584;2024-02-14T14:52:44;9.87;;;4.43;;
22973;SDS011;11653;50.848;4.584;2024-02-14T14:55:10;6.77;;;4.37;;
22973;SDS011;11653;50.848;4.584;2024-02-14T14:57:36;8.63;;;4.30;;